createdAt,value
2023-05-20T00:01:54.406Z,18.40
2023-05-20T00:03:56.305Z,18.40
2023-05-20T00:05:58.046Z,18.40
2023-05-20T00:08:00.562Z,18.40
2023-05-20T00:10:02.300Z,18.40
2023-05-20T00:12:04.132Z,18.40
2023-05-20T00:14:06.271Z,18.40
2023-05-20T00:16:08.022Z,18.40
2023-05-20T00:18:09.816Z,18.40
2023-05-20T00:20:11.670Z,18.40
2023-05-20T00:22:13.357Z,18.40
2023-05-20T00:24:15.073Z,18.40
2023-05-20T00:26:16.836Z,18.30
2023-05-20T00:28:23.839Z,18.40
2023-05-20T00:30:25.621Z,18.40
2023-05-20T00:32:27.416Z,18.40
2023-05-20T00:34:29.155Z,18.40
2023-05-20T00:36:31.311Z,18.40
2023-05-20T00:38:33.623Z,18.40
2023-05-20T00:40:35.376Z,18.50
2023-05-20T00:42:37.892Z,18.40
2023-05-20T00:44:39.676Z,18.40
2023-05-20T00:46:41.458Z,18.40
2023-05-20T00:48:43.959Z,18.40
2023-05-20T00:50:46.514Z,18.40
2023-05-20T00:52:51.555Z,18.40
2023-05-20T00:54:53.235Z,18.40
2023-05-20T00:56:55.022Z,18.40
2023-05-20T00:58:57.456Z,18.40
2023-05-20T01:00:59.233Z,18.30
2023-05-20T01:03:01.169Z,18.30
2023-05-20T01:05:03.279Z,18.30
2023-05-20T01:07:05.867Z,18.30
2023-05-20T01:09:08.051Z,18.30
2023-05-20T01:11:14.276Z,18.20
2023-05-20T01:13:17.389Z,18.20
2023-05-20T01:15:19.373Z,18.20
2023-05-20T01:17:21.556Z,18.20
2023-05-20T01:19:35.987Z,18.20
2023-05-20T01:21:38.444Z,18.10
2023-05-20T01:23:41.262Z,18.10
2023-05-20T01:25:43.711Z,18.10
2023-05-20T01:27:45.608Z,18.10
2023-05-20T01:29:50.597Z,18.00
2023-05-20T01:31:53.659Z,18.10
2023-05-20T01:33:56.190Z,18.00
2023-05-20T01:35:58.885Z,18.00
2023-05-20T01:38:01.399Z,18.00
2023-05-20T01:40:03.985Z,17.90
2023-05-20T01:42:06.209Z,17.90
2023-05-20T01:44:08.009Z,17.90
2023-05-20T01:46:10.438Z,17.90
2023-05-20T01:48:12.341Z,17.90
2023-05-20T01:50:14.192Z,17.90
2023-05-20T01:52:15.919Z,17.90
2023-05-20T01:54:17.614Z,17.90
2023-05-20T01:56:19.434Z,17.90
2023-05-20T01:58:21.090Z,17.90
2023-05-20T02:00:22.828Z,17.90
2023-05-20T02:02:24.612Z,17.80
2023-05-20T02:04:26.477Z,17.80
2023-05-20T02:06:28.201Z,17.80
2023-05-20T02:08:30.345Z,17.80
2023-05-20T02:10:32.019Z,17.80
2023-05-20T02:12:33.739Z,17.80
2023-05-20T02:14:35.714Z,17.80
2023-05-20T02:16:37.453Z,17.80
2023-05-20T02:18:39.194Z,17.80
2023-05-20T02:20:41.228Z,17.80
2023-05-20T02:22:43.012Z,17.80
2023-05-20T02:24:45.981Z,17.80
2023-05-20T02:26:49.500Z,17.80
2023-05-20T02:28:51.584Z,17.80
2023-05-20T02:30:53.358Z,17.70
2023-05-20T02:32:55.133Z,17.80
2023-05-20T02:34:57.166Z,17.70
2023-05-20T02:36:58.933Z,17.70
2023-05-20T02:39:01.235Z,17.70
2023-05-20T02:41:04.421Z,17.70
2023-05-20T02:43:06.149Z,17.70
2023-05-20T02:45:09.794Z,17.70
2023-05-20T02:47:11.456Z,17.70
2023-05-20T02:49:13.139Z,17.70
2023-05-20T02:51:14.952Z,17.70
2023-05-20T02:53:16.643Z,17.70
2023-05-20T02:55:18.668Z,17.70
2023-05-20T02:57:20.420Z,17.70
2023-05-20T02:59:22.060Z,17.70
2023-05-20T03:01:23.848Z,17.70
2023-05-20T03:03:27.142Z,17.60
2023-05-20T03:05:28.895Z,17.60
2023-05-20T03:07:31.761Z,17.50
2023-05-20T03:09:33.545Z,17.70
2023-05-20T03:11:35.366Z,17.70
2023-05-20T03:13:37.935Z,17.60
2023-05-20T03:15:39.834Z,17.60
2023-05-20T03:17:41.605Z,17.60
2023-05-20T03:19:43.382Z,17.60
2023-05-20T03:21:46.592Z,17.60
2023-05-20T03:23:48.841Z,17.60
2023-05-20T03:25:50.745Z,17.60
2023-05-20T03:27:52.547Z,17.60
2023-05-20T03:29:57.136Z,17.60
2023-05-20T03:31:59.427Z,17.60
2023-05-20T03:34:01.220Z,17.60
2023-05-20T03:36:03.005Z,17.60
2023-05-20T03:38:04.770Z,17.50
2023-05-20T03:40:12.833Z,17.50
2023-05-20T03:42:16.035Z,17.60
2023-05-20T03:44:17.823Z,17.60
2023-05-20T03:46:19.553Z,17.60
2023-05-20T03:48:21.340Z,17.60
2023-05-20T03:50:23.528Z,17.60
2023-05-20T03:52:25.525Z,17.60
2023-05-20T03:54:28.117Z,17.60
2023-05-20T03:56:29.967Z,17.60
2023-05-20T03:58:31.831Z,17.60
2023-05-20T04:00:33.599Z,17.60
2023-05-20T04:02:35.613Z,17.60
2023-05-20T04:04:37.923Z,17.60
2023-05-20T04:06:40.471Z,17.60
2023-05-20T04:08:42.412Z,17.60
2023-05-20T04:10:44.257Z,17.60
2023-05-20T04:12:47.032Z,17.60
2023-05-20T04:14:50.051Z,17.60
2023-05-20T04:16:52.499Z,17.60
2023-05-20T04:18:54.377Z,17.60
2023-05-20T04:20:56.526Z,17.60
2023-05-20T04:22:58.192Z,17.60
2023-05-20T04:25:00.500Z,17.60
2023-05-20T04:27:02.360Z,17.60
2023-05-20T04:29:04.431Z,17.70
2023-05-20T04:31:08.242Z,17.60
2023-05-20T04:33:11.854Z,17.60
2023-05-20T04:35:14.506Z,17.60
2023-05-20T04:37:19.092Z,17.60
2023-05-20T04:39:20.814Z,17.70
2023-05-20T04:41:27.298Z,17.70
2023-05-20T04:43:31.986Z,17.70
2023-05-20T04:45:34.146Z,17.70
2023-05-20T04:47:39.198Z,17.70
2023-05-20T04:49:41.104Z,17.70
2023-05-20T04:51:43.759Z,17.70
2023-05-20T04:53:47.077Z,17.70
2023-05-20T04:55:49.727Z,17.70
2023-05-20T04:57:52.533Z,17.70
2023-05-20T04:59:58.553Z,17.70
2023-05-20T05:02:00.504Z,17.70
2023-05-20T05:04:02.719Z,17.70
2023-05-20T05:06:04.514Z,17.70
2023-05-20T05:08:06.836Z,17.70
2023-05-20T05:10:12.219Z,17.70
2023-05-20T05:12:14.086Z,17.70
2023-05-20T05:14:15.870Z,17.70
2023-05-20T05:16:17.759Z,17.70
2023-05-20T05:18:19.515Z,17.70
2023-05-20T05:20:21.305Z,17.70
2023-05-20T05:22:23.050Z,17.80
2023-05-20T05:24:26.241Z,17.80
2023-05-20T05:26:27.924Z,17.70
2023-05-20T05:28:29.693Z,17.80
2023-05-20T05:30:32.548Z,17.80
2023-05-20T05:32:34.443Z,17.80
2023-05-20T05:34:36.188Z,17.80
2023-05-20T05:36:39.505Z,17.80
2023-05-20T05:38:41.567Z,17.80
2023-05-20T05:40:43.317Z,17.90
2023-05-20T05:42:45.429Z,17.80
2023-05-20T05:44:47.868Z,17.90
2023-05-20T05:46:50.770Z,17.90
2023-05-20T05:48:52.547Z,17.90
2023-05-20T05:50:54.361Z,17.90
2023-05-20T05:52:56.730Z,18.00
2023-05-20T05:54:58.495Z,18.00
2023-05-20T05:57:00.825Z,18.00
2023-05-20T05:59:05.435Z,18.00
2023-05-20T06:01:07.233Z,18.10
2023-05-20T06:03:09.302Z,18.10
2023-05-20T06:05:12.511Z,18.10
2023-05-20T06:07:14.314Z,18.10
2023-05-20T06:09:16.352Z,18.30
2023-05-20T06:11:18.198Z,18.10
2023-05-20T06:13:20.200Z,18.20
2023-05-20T06:15:21.960Z,18.20
2023-05-20T06:17:23.737Z,18.20
2023-05-20T06:19:25.709Z,18.20
2023-05-20T06:21:27.585Z,18.30
2023-05-20T06:23:29.250Z,18.30
2023-05-20T06:25:34.239Z,18.30
2023-05-20T06:27:36.560Z,18.40
2023-05-20T06:29:39.126Z,18.40
2023-05-20T06:31:40.853Z,18.40
2023-05-20T06:33:42.571Z,18.40
2023-05-20T06:35:47.480Z,18.40
2023-05-20T06:37:49.313Z,18.50
2023-05-20T06:39:53.975Z,18.50
2023-05-20T06:41:55.905Z,18.50
2023-05-20T06:44:03.606Z,18.50
2023-05-20T06:46:28.396Z,18.60
2023-05-20T06:48:35.184Z,18.60
2023-05-20T06:50:37.252Z,18.60
2023-05-20T06:52:39.177Z,18.70
2023-05-20T06:54:42.024Z,18.70
2023-05-20T06:56:46.023Z,18.70
2023-05-20T06:58:49.378Z,18.80
2023-05-20T07:00:51.572Z,18.80
2023-05-20T07:02:54.113Z,18.80
2023-05-20T07:04:55.927Z,18.90
2023-05-20T07:06:58.378Z,18.80
2023-05-20T07:09:00.948Z,18.90
2023-05-20T07:11:02.792Z,18.90
2023-05-20T07:13:04.607Z,19.00
2023-05-20T07:15:06.853Z,19.00
2023-05-20T07:17:09.312Z,19.00
2023-05-20T07:19:12.856Z,19.00
2023-05-20T07:21:14.696Z,19.00
2023-05-20T07:23:33.094Z,19.10
2023-05-20T07:25:35.352Z,19.10
2023-05-20T07:27:37.374Z,19.10
2023-05-20T07:29:39.178Z,19.20
2023-05-20T07:31:41.154Z,19.20
2023-05-20T07:33:42.956Z,19.30
2023-05-20T07:35:45.589Z,19.20
2023-05-20T07:37:47.888Z,19.30
2023-05-20T07:39:49.791Z,19.30
2023-05-20T07:41:51.569Z,19.30
2023-05-20T07:43:53.429Z,19.30
2023-05-20T07:45:55.479Z,19.40
2023-05-20T07:47:57.630Z,19.40
2023-05-20T07:49:59.405Z,19.40
2023-05-20T07:52:03.129Z,19.50
2023-05-20T07:54:05.521Z,19.50
2023-05-20T07:56:07.538Z,19.50
2023-05-20T07:58:09.340Z,19.50
2023-05-20T08:00:12.062Z,19.50
2023-05-20T08:02:18.781Z,19.60
2023-05-20T08:04:21.359Z,19.60
2023-05-20T08:06:28.737Z,19.60
2023-05-20T08:08:31.764Z,19.60
2023-05-20T08:10:39.196Z,19.70
2023-05-20T08:12:41.270Z,19.70
2023-05-20T08:14:44.165Z,19.70
2023-05-20T08:16:46.813Z,19.80
2023-05-20T08:18:48.599Z,19.90
2023-05-20T08:20:50.926Z,19.80
2023-05-20T08:22:52.743Z,19.90
2023-05-20T08:24:54.549Z,19.90
2023-05-20T08:26:56.486Z,19.90
2023-05-20T08:29:01.323Z,19.90
2023-05-20T08:31:04.045Z,19.90
2023-05-20T08:33:07.204Z,20.00
2023-05-20T08:35:09.303Z,20.00
2023-05-20T08:37:11.168Z,20.00
2023-05-20T08:39:13.135Z,20.00
2023-05-20T08:41:15.533Z,20.10
2023-05-20T08:43:19.860Z,20.10
2023-05-20T08:45:27.777Z,20.20
2023-05-20T08:47:34.023Z,20.20
2023-05-20T08:49:35.782Z,20.20
2023-05-20T08:51:37.824Z,20.20
2023-05-20T08:53:39.929Z,20.30
2023-05-20T08:55:52.622Z,20.30
2023-05-20T08:57:54.653Z,20.30
2023-05-20T08:59:57.331Z,20.30
2023-05-20T09:01:59.135Z,20.30
2023-05-20T09:04:01.060Z,20.30
2023-05-20T09:06:09.298Z,20.40
2023-05-20T09:08:11.866Z,20.40
2023-05-20T09:10:13.742Z,20.40
2023-05-20T09:12:16.154Z,20.40
2023-05-20T09:14:17.937Z,20.50
2023-05-20T09:16:19.778Z,20.50
2023-05-20T09:18:21.597Z,20.50
2023-05-20T09:20:23.435Z,20.60
2023-05-20T09:22:25.992Z,20.60
2023-05-20T09:24:27.772Z,20.60
2023-05-20T09:26:32.983Z,20.70
2023-05-20T09:28:36.106Z,20.70
2023-05-20T09:30:37.842Z,20.80
2023-05-20T09:32:39.824Z,20.80
2023-05-20T09:34:45.525Z,20.80
2023-05-20T09:36:50.633Z,20.80
2023-05-20T09:38:55.671Z,20.80
2023-05-20T09:40:57.513Z,20.90
2023-05-20T09:43:08.725Z,20.90
2023-05-20T09:45:10.580Z,21.00
2023-05-20T09:47:12.926Z,21.00
2023-05-20T09:49:14.896Z,21.10
2023-05-20T09:51:17.631Z,21.10
2023-05-20T09:53:19.846Z,21.20
2023-05-20T09:55:22.788Z,21.20
2023-05-20T09:57:24.531Z,21.30
2023-05-20T09:59:27.146Z,21.30
2023-05-20T10:01:29.562Z,21.40
2023-05-20T10:03:32.067Z,21.50
2023-05-20T10:05:41.308Z,21.50
2023-05-20T10:07:52.227Z,21.50
2023-05-20T10:10:00.067Z,21.60
2023-05-20T10:12:14.478Z,21.60
2023-05-20T10:14:26.156Z,21.60
2023-05-20T10:16:37.430Z,21.70
2023-05-20T10:18:39.295Z,21.70
2023-05-20T10:20:47.950Z,21.80
2023-05-20T10:22:59.115Z,21.90
2023-05-20T10:25:06.698Z,21.90
2023-05-20T10:27:09.721Z,21.90
2023-05-20T10:29:15.685Z,22.00
2023-05-20T10:31:18.436Z,22.00
2023-05-20T10:33:20.293Z,22.10
2023-05-20T10:35:23.398Z,22.20
2023-05-20T10:37:26.893Z,22.20
2023-05-20T10:39:29.278Z,22.30
2023-05-20T10:41:31.241Z,22.30
2023-05-20T10:43:32.982Z,22.40
2023-05-20T10:45:37.374Z,22.40
2023-05-20T10:47:42.890Z,22.50
2023-05-20T10:49:46.422Z,22.50
2023-05-20T10:51:48.284Z,22.60
2023-05-20T10:53:52.583Z,22.70
2023-05-20T10:55:57.589Z,22.70
2023-05-20T10:57:59.570Z,22.80
2023-05-20T11:00:01.387Z,22.90
2023-05-20T11:02:03.996Z,22.90
2023-05-20T11:04:06.575Z,23.00
2023-05-20T11:06:16.849Z,23.00
2023-05-20T11:08:27.789Z,23.10
2023-05-20T11:10:31.937Z,23.10
2023-05-20T11:12:33.830Z,23.10
2023-05-20T11:14:35.723Z,23.10
2023-05-20T11:16:37.634Z,23.20
2023-05-20T11:18:39.528Z,23.20
2023-05-20T11:20:41.364Z,23.30
2023-05-20T11:22:44.773Z,23.30
2023-05-20T11:24:46.543Z,23.40
2023-05-20T11:26:48.293Z,23.40
2023-05-20T11:28:50.077Z,23.50
2023-05-20T11:30:52.528Z,23.60
2023-05-20T11:33:01.133Z,23.60
2023-05-20T11:35:04.893Z,23.70
2023-05-20T11:37:07.195Z,23.80
2023-05-20T11:39:10.146Z,23.90
2023-05-20T11:41:11.836Z,24.00
2023-05-20T11:43:14.496Z,24.10
2023-05-20T11:45:16.147Z,24.10
2023-05-20T11:47:24.424Z,24.20
2023-05-20T11:49:26.370Z,24.30
2023-05-20T11:51:28.762Z,24.30
2023-05-20T11:53:30.542Z,24.40
2023-05-20T11:55:33.516Z,24.40
2023-05-20T11:57:35.299Z,24.40
2023-05-20T11:59:37.012Z,24.50
2023-05-20T12:01:43.349Z,24.60
2023-05-20T12:03:45.178Z,24.60
2023-05-20T12:05:50.787Z,24.70
2023-05-20T12:07:52.630Z,24.70
2023-05-20T12:09:54.469Z,24.70
2023-05-20T12:11:56.824Z,24.80
2023-05-20T12:13:58.530Z,24.80
2023-05-20T12:16:00.456Z,24.80
2023-05-20T12:18:02.270Z,24.80
2023-05-20T12:20:06.876Z,24.90
2023-05-20T12:22:08.564Z,24.90
2023-05-20T12:24:11.069Z,24.90
2023-05-20T12:26:12.818Z,24.90
2023-05-20T12:28:14.605Z,25.00
2023-05-20T12:30:17.599Z,25.00
2023-05-20T12:32:21.009Z,25.10
2023-05-20T12:34:22.750Z,25.10
2023-05-20T12:36:24.473Z,25.20
2023-05-20T12:38:26.227Z,25.20
2023-05-20T12:40:27.972Z,25.20
2023-05-20T12:42:29.744Z,25.30
2023-05-20T12:44:31.609Z,25.40
2023-05-20T12:46:33.403Z,25.40
2023-05-20T12:48:35.201Z,25.50
2023-05-20T12:50:37.029Z,25.60
2023-05-20T12:52:39.052Z,25.60
2023-05-20T12:54:40.818Z,25.70
2023-05-20T12:56:42.642Z,25.80
2023-05-20T12:58:44.357Z,25.80
2023-05-20T13:00:46.063Z,25.80
2023-05-20T13:02:48.230Z,25.80
2023-05-20T13:04:50.202Z,25.80
2023-05-20T13:06:52.021Z,25.90
2023-05-20T13:08:53.714Z,25.90
2023-05-20T13:10:55.583Z,25.80
2023-05-20T13:12:57.877Z,25.80
2023-05-20T13:14:59.628Z,25.90
2023-05-20T13:17:01.833Z,25.80
2023-05-20T13:19:03.663Z,25.90
2023-05-20T13:21:05.422Z,25.90
2023-05-20T13:23:08.049Z,25.90
2023-05-20T13:25:09.783Z,25.90
2023-05-20T13:27:11.468Z,25.90
2023-05-20T13:29:13.535Z,25.90
2023-05-20T13:31:15.492Z,25.90
2023-05-20T13:33:17.244Z,25.90
2023-05-20T13:35:19.068Z,26.00
2023-05-20T13:37:20.994Z,26.00
2023-05-20T13:39:22.709Z,26.00
2023-05-20T13:41:25.438Z,26.10
2023-05-20T13:43:28.551Z,26.10
2023-05-20T13:45:30.314Z,26.10
2023-05-20T13:47:32.238Z,26.10
2023-05-20T13:49:34.043Z,26.10
2023-05-20T13:51:35.825Z,26.20
2023-05-20T13:53:37.560Z,26.20
2023-05-20T13:55:42.010Z,26.30
2023-05-20T13:57:43.745Z,26.30
2023-05-20T13:59:45.822Z,26.30
2023-05-20T14:01:47.634Z,26.40
2023-05-20T14:03:49.616Z,26.40
2023-05-20T14:05:51.612Z,26.50
2023-05-20T14:07:53.284Z,26.50
2023-05-20T14:09:54.985Z,26.60
2023-05-20T14:11:56.850Z,26.60
2023-05-20T14:13:58.691Z,26.70
2023-05-20T14:16:00.588Z,26.70
2023-05-20T14:18:02.409Z,26.70
2023-05-20T14:20:04.564Z,26.70
2023-05-20T14:22:06.308Z,26.70
2023-05-20T14:24:08.103Z,26.70
2023-05-20T14:26:10.165Z,26.70
2023-05-20T14:28:12.149Z,26.60
2023-05-20T14:30:13.829Z,26.70
2023-05-20T14:32:15.617Z,26.70
2023-05-20T14:34:17.439Z,26.60
2023-05-20T14:36:19.176Z,26.60
2023-05-20T14:38:21.721Z,26.60
2023-05-20T14:40:23.551Z,26.60
2023-05-20T14:42:25.554Z,26.60
2023-05-20T14:44:27.260Z,26.70
2023-05-20T14:46:29.131Z,26.60
2023-05-20T14:48:30.917Z,26.60
2023-05-20T14:50:32.782Z,26.60
2023-05-20T14:52:34.641Z,26.60
2023-05-20T14:54:36.360Z,26.60
2023-05-20T14:56:38.162Z,26.60
2023-05-20T14:58:39.973Z,26.60
2023-05-20T15:00:41.790Z,26.50
2023-05-20T15:02:43.696Z,26.50
2023-05-20T15:04:47.780Z,26.40
2023-05-20T15:06:49.564Z,26.40
2023-05-20T15:08:51.749Z,26.40
2023-05-20T15:10:53.500Z,26.40
2023-05-20T15:12:55.304Z,26.40
2023-05-20T15:14:57.189Z,26.40
2023-05-20T15:16:59.099Z,26.40
2023-05-20T15:19:01.062Z,26.40
2023-05-20T15:21:02.922Z,26.40
2023-05-20T15:23:04.754Z,26.30
2023-05-20T15:25:06.663Z,26.30
2023-05-20T15:27:08.429Z,26.20
2023-05-20T15:29:10.148Z,26.20
2023-05-20T15:31:11.955Z,26.10
2023-05-20T15:33:13.808Z,26.10
2023-05-20T15:35:15.657Z,26.00
2023-05-20T15:37:17.490Z,26.00
2023-05-20T15:39:19.286Z,26.00
2023-05-20T15:41:21.726Z,25.90
2023-05-20T15:43:23.534Z,25.90
2023-05-20T15:45:25.275Z,25.90
2023-05-20T15:47:27.004Z,25.90
2023-05-20T15:49:28.799Z,25.90
2023-05-20T15:51:30.887Z,25.80
2023-05-20T15:53:32.813Z,25.80
2023-05-20T15:55:34.977Z,25.80
2023-05-20T15:57:36.792Z,25.80
2023-05-20T15:59:38.667Z,25.80
2023-05-20T16:01:40.554Z,25.70
2023-05-20T16:03:42.952Z,25.70
2023-05-20T16:05:44.806Z,25.80
2023-05-20T16:07:46.814Z,25.70
2023-05-20T16:09:48.572Z,25.70
2023-05-20T16:11:50.387Z,25.80
2023-05-20T16:13:52.272Z,25.80
2023-05-20T16:15:57.510Z,25.80
2023-05-20T16:17:59.356Z,25.80
2023-05-20T16:20:01.258Z,25.90
2023-05-20T16:22:03.137Z,25.80
2023-05-20T16:24:05.523Z,25.80
2023-05-20T16:26:07.197Z,25.80
2023-05-20T16:28:08.935Z,25.80
2023-05-20T16:30:12.117Z,25.80
2023-05-20T16:32:13.914Z,25.80
2023-05-20T16:34:16.743Z,25.80
2023-05-20T16:36:18.589Z,25.80
2023-05-20T16:38:20.382Z,25.80
2023-05-20T16:40:22.268Z,25.80
2023-05-20T16:42:23.955Z,25.80
2023-05-20T16:44:26.055Z,25.80
2023-05-20T16:46:27.849Z,25.70
2023-05-20T16:48:29.657Z,25.70
2023-05-20T16:50:31.623Z,25.70
2023-05-20T16:52:34.439Z,25.70
2023-05-20T16:54:36.330Z,25.60
2023-05-20T16:56:38.159Z,25.70
2023-05-20T16:58:40.141Z,25.60
2023-05-20T17:00:42.505Z,25.60
2023-05-20T17:02:46.350Z,25.60
2023-05-20T17:04:48.446Z,25.60
2023-05-20T17:06:50.366Z,25.60
2023-05-20T17:08:52.275Z,25.60
2023-05-20T17:10:54.402Z,25.50
2023-05-20T17:12:56.490Z,25.50
2023-05-20T17:14:58.264Z,25.50
2023-05-20T17:17:00.521Z,25.50
2023-05-20T17:19:02.540Z,25.40
2023-05-20T17:21:04.404Z,25.40
2023-05-20T17:23:08.816Z,25.40
2023-05-20T17:25:16.948Z,25.40
2023-05-20T17:27:18.795Z,25.40
2023-05-20T17:29:20.555Z,25.40
2023-05-20T17:31:22.327Z,25.30
2023-05-20T17:33:25.021Z,25.30
2023-05-20T17:35:27.831Z,25.30
2023-05-20T17:37:29.529Z,25.20
2023-05-20T17:39:31.285Z,25.20
2023-05-20T17:41:33.000Z,25.20
2023-05-20T17:43:34.762Z,25.20
2023-05-20T17:45:36.552Z,25.20
2023-05-20T17:47:38.390Z,25.20
2023-05-20T17:49:40.536Z,25.20
2023-05-20T17:51:42.516Z,25.10
2023-05-20T17:53:44.261Z,25.10
2023-05-20T17:55:47.068Z,25.10
2023-05-20T17:57:48.863Z,25.10
2023-05-20T17:59:50.878Z,25.00
2023-05-20T18:01:52.940Z,25.00
2023-05-20T18:03:55.008Z,25.00
2023-05-20T18:05:57.173Z,25.00
2023-05-20T18:07:59.001Z,25.00
2023-05-20T18:10:00.950Z,24.90
2023-05-20T18:12:02.788Z,24.90
2023-05-20T18:14:04.757Z,24.90
2023-05-20T18:16:06.680Z,24.80
2023-05-20T18:18:08.573Z,24.80
2023-05-20T18:20:11.226Z,24.70
2023-05-20T18:22:13.072Z,24.70
2023-05-20T18:24:16.542Z,24.70
2023-05-20T18:26:18.345Z,24.60
2023-05-20T18:28:20.185Z,24.60
2023-05-20T18:30:23.189Z,24.60
2023-05-20T18:32:28.421Z,24.50
2023-05-20T18:34:30.327Z,24.40
2023-05-20T18:36:32.295Z,24.40
2023-05-20T18:38:34.086Z,24.40
2023-05-20T18:40:36.141Z,24.30
2023-05-20T18:42:38.087Z,24.30
2023-05-20T18:44:39.790Z,24.20
2023-05-20T18:46:41.906Z,24.20
2023-05-20T18:48:43.605Z,24.10
2023-05-20T18:50:45.356Z,24.10
2023-05-20T18:52:47.102Z,24.10
2023-05-20T18:54:48.917Z,24.00
2023-05-20T18:56:50.778Z,24.00
2023-05-20T18:58:52.513Z,23.90
2023-05-20T19:00:54.371Z,23.90
2023-05-20T19:02:58.130Z,23.90
2023-05-20T19:04:59.993Z,23.80
2023-05-20T19:07:01.955Z,23.80
2023-05-20T19:09:04.163Z,23.80
2023-05-20T19:11:05.994Z,23.70
2023-05-20T19:13:07.912Z,23.70
2023-05-20T19:15:09.975Z,23.70
2023-05-20T19:17:11.896Z,23.60
2023-05-20T19:19:14.623Z,23.50
2023-05-20T19:21:16.644Z,23.50
2023-05-20T19:23:18.510Z,23.40
2023-05-20T19:25:21.138Z,23.40
2023-05-20T19:27:25.610Z,23.40
2023-05-20T19:29:40.602Z,23.30
2023-05-20T19:31:45.890Z,23.30
2023-05-20T19:33:59.008Z,23.30
2023-05-20T19:36:15.641Z,23.20
2023-05-20T19:41:08.160Z,23.20
2023-05-20T19:43:10.084Z,23.10
2023-05-20T19:45:11.977Z,23.00
2023-05-20T19:47:13.803Z,23.00
2023-05-20T19:49:15.786Z,23.00
2023-05-20T19:51:17.572Z,22.90
2023-05-20T19:53:21.709Z,22.90
2023-05-20T19:55:23.458Z,22.80
2023-05-20T19:57:25.844Z,22.80
2023-05-20T19:59:27.680Z,22.80
2023-05-20T20:01:29.669Z,22.80
2023-05-20T20:03:31.407Z,22.70
2023-05-20T20:05:33.664Z,22.70
2023-05-20T20:07:35.579Z,22.70
2023-05-20T20:09:37.390Z,22.60
2023-05-20T20:11:43.414Z,22.60
2023-05-20T20:13:45.853Z,22.60
2023-05-20T20:15:47.601Z,22.50
2023-05-20T20:17:52.149Z,22.50
2023-05-20T20:19:55.227Z,22.50
2023-05-20T20:21:58.153Z,22.40
2023-05-20T20:24:00.146Z,22.40
2023-05-20T20:26:01.900Z,22.40
2023-05-20T20:28:03.655Z,22.30
2023-05-20T20:30:06.115Z,22.30
2023-05-20T20:32:08.468Z,22.30
2023-05-20T20:34:10.261Z,22.30
2023-05-20T20:36:12.029Z,22.30
2023-05-20T20:38:14.828Z,22.20
2023-05-20T20:40:16.879Z,22.20
2023-05-20T20:42:18.716Z,22.20
2023-05-20T20:44:23.481Z,22.10
2023-05-20T20:46:27.484Z,22.10
2023-05-20T20:48:29.364Z,22.10
2023-05-20T20:50:31.707Z,22.10
2023-05-20T20:52:33.768Z,22.10
2023-05-20T20:54:36.495Z,22.10
2023-05-20T20:56:39.503Z,22.00
2023-05-20T20:58:41.299Z,22.00
2023-05-20T21:00:44.950Z,22.00
2023-05-20T21:02:47.503Z,22.00
2023-05-20T21:04:49.284Z,22.00
2023-05-20T21:06:51.240Z,21.90
2023-05-20T21:08:53.160Z,21.90
2023-05-20T21:10:59.101Z,21.90
2023-05-20T21:13:00.844Z,21.90
2023-05-20T21:15:02.604Z,21.80
2023-05-20T21:17:04.489Z,21.80
2023-05-20T21:19:06.376Z,21.80
2023-05-20T21:21:12.098Z,21.80
2023-05-20T21:23:13.862Z,21.80
2023-05-20T21:25:15.651Z,21.70
2023-05-20T21:27:17.398Z,21.70
2023-05-20T21:29:19.196Z,21.70
2023-05-20T21:31:21.046Z,21.70
2023-05-20T21:33:22.862Z,21.60
2023-05-20T21:35:24.593Z,21.60
2023-05-20T21:37:26.394Z,21.60
2023-05-20T21:39:28.117Z,21.60
2023-05-20T21:41:29.869Z,21.50
2023-05-20T21:43:34.714Z,21.50
2023-05-20T21:45:36.766Z,21.50
2023-05-20T21:47:38.793Z,21.50
2023-05-20T21:49:40.580Z,21.50
2023-05-20T21:51:42.412Z,21.40
2023-05-20T21:53:44.158Z,21.40
2023-05-20T21:55:45.896Z,21.40
2023-05-20T21:57:47.653Z,21.40
2023-05-20T21:59:49.382Z,21.40
2023-05-20T22:01:51.231Z,21.30
2023-05-20T22:03:53.285Z,21.30
2023-05-20T22:05:55.341Z,21.30
2023-05-20T22:07:57.156Z,21.30
2023-05-20T22:09:59.813Z,21.30
2023-05-20T22:12:02.144Z,21.20
2023-05-20T22:14:04.870Z,21.20
2023-05-20T22:16:07.072Z,21.20
2023-05-20T22:18:09.487Z,21.20
2023-05-20T22:20:11.662Z,21.20
2023-05-20T22:22:13.355Z,21.10
2023-05-20T22:24:15.079Z,21.20
2023-05-20T22:26:19.618Z,21.10
2023-05-20T22:28:21.385Z,21.10
2023-05-20T22:30:23.085Z,21.10
2023-05-20T22:32:24.796Z,21.10
2023-05-20T22:34:26.618Z,21.10
2023-05-20T22:36:28.393Z,21.00
2023-05-20T22:38:30.741Z,21.00
2023-05-20T22:40:33.434Z,21.00
2023-05-20T22:42:35.169Z,21.00
2023-05-20T22:44:36.842Z,21.00
2023-05-20T22:46:38.553Z,21.00
2023-05-20T22:48:41.163Z,21.00
2023-05-20T22:50:42.860Z,21.00
2023-05-20T22:52:44.717Z,21.00
2023-05-20T22:54:46.522Z,21.00
2023-05-20T22:56:48.364Z,20.90
2023-05-20T22:58:50.051Z,20.90
2023-05-20T23:00:52.602Z,20.90
2023-05-20T23:02:56.477Z,20.90
2023-05-20T23:04:58.271Z,20.90
2023-05-20T23:07:00.132Z,20.90
2023-05-20T23:09:04.196Z,20.90
2023-05-20T23:11:05.956Z,20.90
2023-05-20T23:13:07.653Z,20.90
2023-05-20T23:15:09.683Z,20.80
2023-05-20T23:17:11.468Z,20.80
2023-05-20T23:19:13.401Z,20.80
2023-05-20T23:21:15.102Z,20.80
2023-05-20T23:23:19.199Z,20.80
2023-05-20T23:25:24.441Z,20.80
2023-05-20T23:27:26.243Z,20.80
2023-05-20T23:29:28.612Z,20.80
2023-05-20T23:31:30.317Z,20.80
2023-05-20T23:33:32.646Z,20.80
2023-05-20T23:35:34.618Z,20.80
2023-05-20T23:37:36.521Z,20.80
2023-05-20T23:39:38.381Z,20.70
2023-05-20T23:41:40.078Z,20.70
2023-05-20T23:43:42.812Z,20.70
2023-05-20T23:45:44.553Z,20.80
2023-05-20T23:47:46.286Z,20.70
2023-05-20T23:49:49.382Z,20.80
2023-05-20T23:51:51.673Z,20.70
2023-05-20T23:53:53.616Z,20.70
2023-05-20T23:55:55.319Z,20.70
2023-05-20T23:57:57.229Z,20.70
2023-05-20T23:59:58.957Z,20.70
